Time;durP1;ratioP1;P1;durP2;ratioP2;P2;SDS_P1;SDS_P2;PMS_P1;PMS_P2;Temp;Humidity;BMP_temperature;BMP_pressure;BME280_temperature;BME280_humidity;BME280_pressure;Samples;Min_cycle;Max_cycle;Signal;HPM_P1;HPM_P2
2021/12/31 00:01:11;;;;;;;4.07;1.42;;;;;;;19.60;59.70;101705.88;5014082;28;20030;-66
2021/12/31 00:03:39;;;;;;;5.70;1.55;;;;;;;19.58;59.63;101716.56;5012931;28;20092;-65
2021/12/31 00:06:05;;;;;;;4.53;1.52;;;;;;;19.56;59.82;101715.84;5014066;28;20021;-66
2021/12/31 00:08:31;;;;;;;6.72;1.75;;;;;;;19.56;59.65;101710.56;5013710;28;20042;-65
2021/12/31 00:10:59;;;;;;;7.35;1.60;;;;;;;19.55;59.81;101722.94;5013243;28;20038;-66
2021/12/31 00:13:26;;;;;;;6.15;1.90;;;;;;;19.54;59.88;101720.41;5013886;28;20041;-66
2021/12/31 00:15:51;;;;;;;6.10;1.73;;;;;;;19.52;59.74;101723.16;5013513;28;20022;-66
2021/12/31 00:18:16;;;;;;;6.95;1.90;;;;;;;19.52;59.79;101738.19;5012878;28;20459;-67
2021/12/31 00:20:42;;;;;;;6.50;1.53;;;;;;;19.50;59.71;101738.31;5013292;28;20034;-66
2021/12/31 00:23:09;;;;;;;5.93;1.42;;;;;;;19.49;59.80;101733.13;5013363;28;20037;-67
2021/12/31 00:25:37;;;;;;;5.43;1.65;;;;;;;19.49;59.85;101739.25;5013145;28;20058;-67
2021/12/31 00:28:04;;;;;;;7.90;1.95;;;;;;;19.47;59.69;101735.03;5013107;28;20045;-66
2021/12/31 00:30:33;;;;;;;5.53;1.60;;;;;;;19.47;59.92;101735.88;5012584;28;20572;-66
2021/12/31 00:33:02;;;;;;;4.22;1.50;;;;;;;19.47;59.82;101738.53;5013727;28;20037;-66
2021/12/31 00:35:28;;;;;;;5.05;1.48;;;;;;;19.46;59.84;101741.28;5013623;28;20018;-66
2021/12/31 00:37:54;;;;;;;5.00;1.50;;;;;;;19.44;59.46;101741.41;5012609;28;20026;-67
2021/12/31 00:40:19;;;;;;;5.97;1.90;;;;;;;19.42;59.84;101732.72;5013514;28;20042;-66
2021/12/31 00:42:45;;;;;;;5.60;1.75;;;;;;;19.41;59.92;101738.97;5013254;28;20033;-66
2021/12/31 00:45:16;;;;;;;5.55;1.38;;;;;;;19.40;59.93;101745.22;5012701;28;20109;-66
2021/12/31 00:47:42;;;;;;;5.82;1.50;;;;;;;19.39;59.96;101735.56;5012915;28;20413;-66
2021/12/31 00:50:12;;;;;;;5.10;1.50;;;;;;;19.38;59.83;101737.38;5014906;28;20037;-66
2021/12/31 00:52:38;;;;;;;7.03;1.67;;;;;;;19.38;60.00;101733.91;5012601;28;20022;-66
2021/12/31 00:55:05;;;;;;;6.82;1.80;;;;;;;19.37;59.80;101735.69;5014011;28;20474;-66
2021/12/31 00:57:30;;;;;;;4.75;1.40;;;;;;;19.34;59.82;101738.59;5014031;28;20038;-66
2021/12/31 00:59:56;;;;;;;4.90;1.30;;;;;;;19.34;59.95;101738.59;5013748;28;20032;-66
2021/12/31 01:02:24;;;;;;;6.45;1.42;;;;;;;19.32;59.77;101735.19;5014503;28;20025;-66
2021/12/31 01:04:49;;;;;;;8.23;1.60;;;;;;;19.31;59.96;101735.28;5019396;28;20026;-66
2021/12/31 01:07:14;;;;;;;5.80;1.47;;;;;;;19.30;59.99;101739.75;5018770;28;20040;-65
2021/12/31 01:09:40;;;;;;;5.53;2.00;;;;;;;19.31;60.13;101743.22;5013035;28;20319;-66
2021/12/31 01:12:09;;;;;;;5.40;1.60;;;;;;;19.29;59.90;101738.03;5013094;28;20291;-66
2021/12/31 01:15:08;;;;;;;5.50;1.63;;;;;;;19.28;59.76;101736.38;5011909;28;20045;-66
2021/12/31 01:20:10;;;;;;;8.50;1.63;;;;;;;19.26;59.96;101732.16;5012328;28;20034;-65
2021/12/31 01:22:36;;;;;;;5.47;1.38;;;;;;;19.26;59.97;101726.84;5012767;28;20030;-66
2021/12/31 01:25:11;;;;;;;8.80;1.85;;;;;;;19.26;60.06;101729.50;5012843;28;20125;-65
2021/12/31 01:27:38;;;;;;;7.35;1.50;;;;;;;19.24;60.19;101721.69;5012009;28;20114;-66
2021/12/31 01:30:06;;;;;;;5.82;1.50;;;;;;;19.25;59.99;101728.66;5012761;28;20478;-66
2021/12/31 01:32:32;;;;;;;8.20;1.90;;;;;;;19.24;60.04;101720.84;5012650;28;20449;-65
2021/12/31 01:34:58;;;;;;;4.95;1.42;;;;;;;19.23;60.02;101729.72;5012252;28;20112;-66
2021/12/31 01:37:24;;;;;;;5.10;1.42;;;;;;;19.23;60.08;101735.00;5012945;28;20026;-66
2021/12/31 01:39:49;;;;;;;5.43;1.73;;;;;;;19.22;60.11;101731.53;5014085;28;20045;-65
2021/12/31 01:42:17;;;;;;;6.10;1.48;;;;;;;19.20;60.14;101728.13;5016222;28;20042;-66
2021/12/31 01:44:55;;;;;;;6.35;1.30;;;;;;;19.18;59.96;101736.19;5016424;28;20091;-66
2021/12/31 01:47:22;;;;;;;4.82;1.60;;;;;;;19.19;59.92;101742.31;5016711;28;20037;-66
2021/12/31 01:49:58;;;;;;;5.90;1.58;;;;;;;19.17;60.00;101733.66;5015573;28;20032;-65
2021/12/31 01:52:24;;;;;;;7.95;1.55;;;;;;;19.16;59.71;101748.66;5016466;28;20084;-65
2021/12/31 01:54:49;;;;;;;7.13;1.67;;;;;;;19.17;59.85;101738.94;5015621;28;20034;-66
2021/12/31 01:57:20;;;;;;;5.60;1.50;;;;;;;19.16;60.15;101739.91;5016528;28;20037;-66
2021/12/31 01:59:45;;;;;;;4.28;1.20;;;;;;;19.16;59.94;101739.91;5016090;28;20045;-65
2021/12/31 02:02:11;;;;;;;6.30;1.63;;;;;;;19.14;59.87;101750.56;5015503;28;20025;-65
2021/12/31 02:04:40;;;;;;;6.28;1.55;;;;;;;19.14;59.91;101742.66;5016008;28;20038;-66
2021/12/31 02:07:07;;;;;;;4.95;1.52;;;;;;;19.15;59.85;101751.41;5016153;28;20054;-66
2021/12/31 02:09:37;;;;;;;7.07;1.80;;;;;;;19.13;59.99;101750.69;5015277;28;20098;-66
2021/12/31 02:12:03;;;;;;;5.32;1.40;;;;;;;19.12;59.87;101746.34;5016410;28;20030;-65
2021/12/31 02:14:30;;;;;;;5.07;1.33;;;;;;;19.12;59.88;101747.22;5016159;28;20033;-65
2021/12/31 02:16:56;;;;;;;8.30;2.00;;;;;;;19.11;59.87;101747.31;5015430;28;20037;-66
2021/12/31 02:19:28;;;;;;;7.10;1.40;;;;;;;19.11;59.91;101748.16;5016302;28;20022;-66
2021/12/31 02:21:57;;;;;;;6.90;1.65;;;;;;;19.08;59.93;101739.59;5015739;28;20294;-65
2021/12/31 02:24:23;;;;;;;6.28;1.50;;;;;;;19.09;59.81;101749.19;5015127;28;20051;-66
2021/12/31 02:26:52;;;;;;;9.27;1.50;;;;;;;19.09;60.12;101742.13;5016022;28;20531;-66
2021/12/31 02:29:23;;;;;;;6.43;1.55;;;;;;;19.08;59.96;101744.88;5016050;28;20040;-65
2021/12/31 02:31:48;;;;;;;6.32;1.48;;;;;;;19.07;60.25;101741.38;5015410;28;20109;-66
2021/12/31 02:34:14;;;;;;;7.43;1.55;;;;;;;19.07;59.90;101741.38;5016532;28;20113;-66
2021/12/31 02:36:39;;;;;;;5.37;1.33;;;;;;;19.06;60.04;101742.34;5015787;28;20021;-65
2021/12/31 02:39:07;;;;;;;7.57;1.70;;;;;;;19.07;59.77;101729.97;5014920;28;20279;-65
2021/12/31 02:41:33;;;;;;;5.28;1.40;;;;;;;19.05;59.78;101735.38;5015481;28;20466;-64
2021/12/31 02:44:01;;;;;;;4.72;1.40;;;;;;;19.06;59.93;101737.06;5014962;28;20038;-65
2021/12/31 02:46:27;;;;;;;5.78;1.65;;;;;;;19.05;59.94;101734.53;5015726;28;20033;-65
2021/12/31 02:48:57;;;;;;;7.03;1.70;;;;;;;19.05;59.98;101730.09;5015363;28;20030;-66
2021/12/31 02:51:28;;;;;;;6.55;1.83;;;;;;;19.05;59.88;101730.09;5014477;28;20101;-66
2021/12/31 02:53:55;;;;;;;6.60;1.75;;;;;;;19.05;59.96;101724.81;5015112;28;20042;-66
2021/12/31 02:56:22;;;;;;;6.15;1.27;;;;;;;19.04;59.97;101728.38;5015332;28;20021;-65
2021/12/31 02:58:47;;;;;;;6.55;1.60;;;;;;;19.03;59.97;101727.56;5014359;28;20148;-66
2021/12/31 03:01:13;;;;;;;8.05;1.73;;;;;;;19.03;59.83;101724.06;5015235;28;20073;-66
2021/12/31 03:03:40;;;;;;;5.93;1.67;;;;;;;19.03;59.93;101722.25;5014915;28;20030;-66
2021/12/31 03:06:08;;;;;;;8.70;1.80;;;;;;;19.02;59.84;101727.66;5014354;28;20477;-66
2021/12/31 03:08:41;;;;;;;4.80;1.45;;;;;;;19.02;59.83;101732.94;5014896;28;20497;-66
2021/12/31 03:11:10;;;;;;;5.63;1.55;;;;;;;19.01;59.68;101729.47;5015195;28;20482;-66
2021/12/31 03:13:36;;;;;;;6.07;1.30;;;;;;;19.00;59.90;101724.28;5014216;28;20113;-65
2021/12/31 03:16:01;;;;;;;7.00;1.83;;;;;;;19.00;59.92;101722.47;5015222;28;20117;-67
2021/12/31 03:18:28;;;;;;;5.97;1.38;;;;;;;18.98;59.98;101721.75;5015279;28;20025;-66
2021/12/31 03:21:09;;;;;;;6.15;1.58;;;;;;;18.99;59.96;101717.31;5013749;28;20490;-66
2021/12/31 03:23:34;;;;;;;6.50;1.85;;;;;;;18.99;59.90;101722.59;5014229;28;20029;-65
2021/12/31 03:26:00;;;;;;;7.10;1.52;;;;;;;18.97;59.85;101716.59;5014262;28;20034;-66
2021/12/31 03:28:26;;;;;;;7.78;1.77;;;;;;;18.97;60.06;101712.13;5014685;28;20033;-65
2021/12/31 03:30:52;;;;;;;5.43;1.73;;;;;;;18.98;59.83;101715.66;5014397;28;20492;-67
2021/12/31 03:33:17;;;;;;;5.65;1.58;;;;;;;18.97;60.12;101713.94;5014136;28;20026;-66
2021/12/31 03:35:43;;;;;;;6.05;1.40;;;;;;;18.96;59.99;101720.16;5014356;28;20022;-66
2021/12/31 03:38:08;;;;;;;8.43;1.88;;;;;;;18.95;59.81;101716.69;5014438;28;20041;-67
2021/12/31 03:40:43;;;;;;;4.25;1.35;;;;;;;18.97;59.92;101709.50;5013724;28;20034;-66
2021/12/31 03:43:13;;;;;;;5.93;1.60;;;;;;;18.94;59.84;101707.06;5014611;28;20390;-66
2021/12/31 03:45:42;;;;;;;7.80;1.40;;;;;;;18.95;59.96;101700.00;5014170;28;20112;-66
2021/12/31 03:48:07;;;;;;;7.93;1.52;;;;;;;18.94;59.88;101699.16;5013567;28;20036;-66
2021/12/31 03:50:32;;;;;;;6.22;1.30;;;;;;;18.93;59.83;101697.47;5014158;28;20018;-66
2021/12/31 03:53:00;;;;;;;7.82;1.60;;;;;;;18.93;59.92;101694.84;5014168;28;20040;-65
2021/12/31 03:55:26;;;;;;;6.78;1.70;;;;;;;18.92;59.75;101698.41;5013725;28;20041;-65
2021/12/31 03:57:51;;;;;;;4.95;1.48;;;;;;;18.92;59.92;101695.78;5013951;28;20478;-66
2021/12/31 04:00:17;;;;;;;7.60;1.60;;;;;;;18.92;59.71;101697.59;5014295;28;20029;-67
2021/12/31 04:02:42;;;;;;;5.95;1.70;;;;;;;18.91;59.86;101695.88;5012361;28;20026;-65
2021/12/31 04:05:08;;;;;;;6.95;1.55;;;;;;;18.91;59.93;101698.53;5014076;28;20466;-66
2021/12/31 04:07:34;;;;;;;7.60;1.48;;;;;;;18.90;59.78;101694.19;5013774;28;20064;-65
2021/12/31 04:09:59;;;;;;;5.05;1.48;;;;;;;18.90;59.97;101694.19;5013317;28;20477;-65
2021/12/31 04:12:24;;;;;;;6.63;1.60;;;;;;;18.89;59.80;101696.00;5013962;28;20382;-66
2021/12/31 04:14:49;;;;;;;7.25;1.55;;;;;;;18.88;59.79;101701.38;5013620;28;20053;-66
2021/12/31 04:17:15;;;;;;;8.00;1.73;;;;;;;18.89;59.78;101708.38;5013139;28;20033;-65
2021/12/31 04:19:42;;;;;;;5.30;1.23;;;;;;;18.88;59.75;101698.75;5013469;28;20022;-66
2021/12/31 04:22:08;;;;;;;6.63;1.65;;;;;;;18.85;59.48;101710.38;5013842;28;20683;-66
2021/12/31 04:27:07;;;;;;;;;;;;;;;18.83;59.82;101706.97;5014391;28;20458;-66
2021/12/31 04:29:34;;;;;;;6.60;1.50;;;;;;;18.85;59.69;101702.47;5012692;28;19917;-65
2021/12/31 04:32:00;;;;;;;7.63;1.70;;;;;;;18.84;59.74;101698.13;5013508;28;20033;-65
2021/12/31 04:34:26;;;;;;;7.28;1.60;;;;;;;18.82;59.79;101690.28;5013344;28;20022;-65
2021/12/31 04:36:52;;;;;;;6.72;1.88;;;;;;;18.83;59.76;101699.03;5012415;28;20088;-66
2021/12/31 04:39:17;;;;;;;7.82;2.00;;;;;;;18.83;59.90;101696.41;5013418;28;20053;-66
2021/12/31 04:41:42;;;;;;;6.53;1.60;;;;;;;18.81;59.75;101690.38;5013176;28;20056;-65
2021/12/31 04:44:07;;;;;;;5.27;1.50;;;;;;;18.82;59.60;101682.34;5012454;28;20037;-65
2021/12/31 04:46:32;;;;;;;6.00;1.60;;;;;;;18.80;59.71;101679.00;5012945;28;20279;-65
2021/12/31 04:49:00;;;;;;;5.47;1.53;;;;;;;18.80;59.61;101681.63;5012963;28;20373;-66
2021/12/31 04:51:26;;;;;;;6.95;1.63;;;;;;;18.80;59.79;101672.84;5012590;28;20766;-66
2021/12/31 04:53:51;;;;;;;6.10;1.90;;;;;;;18.78;59.64;101665.03;5012955;28;20037;-65
2021/12/31 04:56:16;;;;;;;7.93;1.77;;;;;;;18.79;59.56;101673.81;5013154;28;20774;-66
2021/12/31 04:58:41;;;;;;;6.35;1.90;;;;;;;18.78;59.64;101680.03;5011838;28;20647;-66
2021/12/31 05:01:06;;;;;;;6.67;1.60;;;;;;;18.78;59.49;101678.22;5012970;28;20100;-65
2021/12/31 05:03:32;;;;;;;7.23;1.77;;;;;;;18.78;59.56;101677.41;5012584;28;20774;-65
2021/12/31 05:05:57;;;;;;;6.90;1.83;;;;;;;18.77;59.72;101681.84;5012357;28;20279;-66
2021/12/31 05:08:22;;;;;;;8.23;1.55;;;;;;;18.77;59.69;101673.06;5013127;28;20368;-66
2021/12/31 05:10:48;;;;;;;5.57;1.52;;;;;;;18.77;59.51;101680.97;5012759;28;20389;-66
2021/12/31 05:13:15;;;;;;;8.53;1.90;;;;;;;18.76;59.54;101680.16;5012165;28;20030;-66
2021/12/31 05:15:46;;;;;;;7.82;1.50;;;;;;;18.76;59.63;101689.88;5012640;28;20386;-67
2021/12/31 05:18:14;;;;;;;5.45;1.60;;;;;;;18.75;59.68;101681.09;5012892;28;20366;-67
2021/12/31 05:20:40;;;;;;;6.53;1.60;;;;;;;18.76;59.46;101668.75;5012078;28;20022;-66
2021/12/31 05:23:05;;;;;;;7.10;1.50;;;;;;;18.75;59.63;101672.31;5013123;28;20097;-66
2021/12/31 05:25:31;;;;;;;8.48;1.92;;;;;;;18.74;59.62;101665.34;5012277;28;20377;-66
2021/12/31 05:27:56;;;;;;;6.72;1.55;;;;;;;18.73;59.57;101669.78;5012162;28;20062;-66
2021/12/31 05:30:25;;;;;;;6.15;1.42;;;;;;;18.74;59.61;101676.78;5012784;28;20041;-68
2021/12/31 05:32:51;;;;;;;6.53;1.75;;;;;;;18.73;59.61;101672.44;5012145;28;20038;-67
2021/12/31 05:35:16;;;;;;;6.78;1.60;;;;;;;18.72;59.76;101662.81;5012687;28;20048;-66
2021/12/31 05:37:42;;;;;;;5.68;1.42;;;;;;;18.73;59.58;101653.13;5012604;28;20057;-67
2021/12/31 05:40:07;;;;;;;6.45;1.73;;;;;;;18.71;59.42;101658.50;5012195;28;20478;-67
2021/12/31 05:42:32;;;;;;;6.28;1.50;;;;;;;18.72;59.50;101659.34;5012318;28;20390;-67
2021/12/31 05:44:58;;;;;;;7.63;1.80;;;;;;;18.70;59.56;101638.31;5012826;28;20026;-67
2021/12/31 05:47:23;;;;;;;4.38;1.35;;;;;;;18.71;59.20;101637.38;5011716;28;20288;-67
2021/12/31 05:49:52;;;;;;;7.13;1.35;;;;;;;18.70;59.46;101622.50;5012264;28;20473;-66
2021/12/31 05:52:17;;;;;;;7.47;1.80;;;;;;;18.71;59.31;101631.25;5012570;28;20375;-66
2021/12/31 05:54:45;;;;;;;6.25;1.38;;;;;;;18.69;59.32;101618.16;5011338;28;20026;-66
2021/12/31 05:57:11;;;;;;;5.75;1.48;;;;;;;18.68;59.34;101625.22;5012740;28;20029;-66
2021/12/31 05:59:36;;;;;;;6.47;1.40;;;;;;;18.66;59.41;101621.88;5012067;28;20030;-66
2021/12/31 06:02:01;;;;;;;4.80;1.55;;;;;;;18.66;59.33;101634.25;5011554;28;20302;-66
2021/12/31 06:04:26;;;;;;;7.75;1.65;;;;;;;18.66;59.24;101632.44;5012622;28;20033;-66
2021/12/31 06:06:52;;;;;;;6.75;1.90;;;;;;;18.65;59.15;101638.66;5012347;28;20528;-66
2021/12/31 06:09:20;;;;;;;5.77;1.50;;;;;;;18.65;59.11;101629.91;5011634;28;20541;-66
2021/12/31 06:11:45;;;;;;;6.43;1.80;;;;;;;18.65;58.89;101633.38;5012043;28;20275;-66
2021/12/31 06:14:12;;;;;;;5.72;1.42;;;;;;;18.66;58.60;101631.59;5012473;28;20088;-66
2021/12/31 06:16:42;;;;;;;8.75;1.52;;;;;;;18.70;58.75;101629.56;5011192;28;20048;-66
2021/12/31 06:19:14;;;;;;;5.82;1.48;;;;;;;18.74;58.87;101641.59;5012501;28;20042;-65
2021/12/31 06:21:42;;;;;;;4.13;1.30;;;;;;;18.77;58.86;101644.88;5012187;28;20088;-66
2021/12/31 06:24:08;;;;;;;6.18;1.38;;;;;;;18.80;58.91;101643.78;5011365;28;20089;-66
2021/12/31 06:26:33;;;;;;;4.78;1.42;;;;;;;18.83;58.62;101654.13;5014530;28;20469;-66
2021/12/31 06:28:59;;;;;;;6.05;1.40;;;;;;;18.85;58.69;101644.38;5014772;28;20117;-66
2021/12/31 06:31:25;;;;;;;5.70;1.30;;;;;;;18.90;58.79;101649.28;5015632;28;20108;-66
2021/12/31 06:33:53;;;;;;;4.85;1.52;;;;;;;18.93;58.55;101644.66;5015474;28;20038;-65
2021/12/31 06:36:19;;;;;;;5.93;1.83;;;;;;;18.94;58.62;101635.75;5014909;28;20053;-65
2021/12/31 06:38:45;;;;;;;5.72;1.13;;;;;;;18.97;58.75;101645.25;5015277;28;20065;-65
2021/12/31 06:41:10;;;;;;;6.85;1.60;;;;;;;19.00;58.60;101650.31;5015241;28;20022;-66
2021/12/31 06:43:36;;;;;;;5.85;1.48;;;;;;;19.03;58.53;101658.03;5014250;28;20025;-66
2021/12/31 06:46:01;;;;;;;6.37;1.90;;;;;;;19.05;58.59;101664.03;5015305;28;20046;-66
2021/12/31 06:48:26;;;;;;;6.53;1.48;;;;;;;19.06;58.42;101668.38;5015450;28;20389;-66
2021/12/31 06:50:52;;;;;;;6.25;1.77;;;;;;;19.08;58.46;101674.38;5014475;28;20037;-66
2021/12/31 06:53:17;;;;;;;5.97;1.70;;;;;;;19.09;58.49;101677.88;5015372;28;20493;-68
2021/12/31 06:55:45;;;;;;;5.28;1.20;;;;;;;19.12;58.54;101680.28;5014972;28;20034;-66
2021/12/31 06:58:10;;;;;;;7.15;1.15;;;;;;;19.12;58.38;101664.44;5014323;28;20037;-67
2021/12/31 07:00:36;;;;;;;6.33;1.60;;;;;;;19.12;58.46;101654.72;5015075;28;20030;-67
2021/12/31 07:03:04;;;;;;;4.38;1.27;;;;;;;19.15;58.31;101659.78;5015146;28;20282;-67
2021/12/31 07:05:29;;;;;;;6.47;1.55;;;;;;;19.16;58.21;101658.81;5014169;28;20259;-67
2021/12/31 07:07:55;;;;;;;6.97;1.73;;;;;;;19.17;58.28;101671.09;5014927;28;20072;-67
2021/12/31 07:10:20;;;;;;;5.50;1.40;;;;;;;19.18;58.19;101679.84;5014937;28;20088;-67
2021/12/31 07:12:46;;;;;;;6.43;1.58;;;;;;;19.20;58.24;101683.22;5013732;28;20042;-67
2021/12/31 07:15:11;;;;;;;5.87;1.33;;;;;;;19.21;58.26;101688.38;5015068;28;20026;-67
2021/12/31 07:17:36;;;;;;;5.22;1.42;;;;;;;19.21;58.27;101676.97;5014631;28;20026;-67
2021/12/31 07:20:02;;;;;;;6.93;1.30;;;;;;;19.23;58.15;101679.50;5014205;28;20026;-67
2021/12/31 07:22:27;;;;;;;6.18;1.27;;;;;;;19.23;58.11;101671.59;5014835;28;20117;-67
2021/12/31 07:24:55;;;;;;;7.25;1.75;;;;;;;19.25;58.22;101688.16;5014295;28;20042;-67
2021/12/31 07:27:20;;;;;;;6.00;1.50;;;;;;;19.25;58.24;101690.81;5013603;28;20116;-67
2021/12/31 07:29:45;;;;;;;4.87;1.27;;;;;;;19.26;58.23;101698.63;5014501;28;20506;-67
2021/12/31 07:32:11;;;;;;;4.50;1.17;;;;;;;19.27;58.24;101692.41;5014020;28;20117;-67
2021/12/31 07:34:36;;;;;;;5.87;1.47;;;;;;;19.27;58.15;101681.81;5014237;28;20275;-67
2021/12/31 07:37:04;;;;;;;8.43;1.37;;;;;;;19.28;58.21;101687.94;5013496;28;20287;-66
2021/12/31 07:39:32;;;;;;;10.43;1.60;;;;;;;19.29;58.01;101681.72;5013550;28;20283;-66
2021/12/31 07:41:57;;;;;;;6.43;1.45;;;;;;;19.29;57.86;101697.56;5014348;28;20030;-67
2021/12/31 07:44:22;;;;;;;7.25;1.60;;;;;;;19.30;57.92;101686.88;5014504;28;20430;-66
2021/12/31 07:46:48;;;;;;;5.13;1.20;;;;;;;19.30;57.81;101678.97;5013275;28;20022;-66
2021/12/31 07:49:13;;;;;;;6.03;1.20;;;;;;;19.30;58.07;101692.16;5014384;28;20336;-67
2021/12/31 07:51:38;;;;;;;6.45;1.55;;;;;;;19.32;58.26;101686.78;5013790;28;20287;-66
2021/12/31 07:54:03;;;;;;;4.63;1.25;;;;;;;19.34;58.18;101701.56;5013473;28;20026;-67
2021/12/31 07:56:31;;;;;;;7.72;1.67;;;;;;;19.36;58.13;101706.75;5014129;28;20034;-66
2021/12/31 07:58:56;;;;;;;5.43;1.33;;;;;;;19.38;57.99;101715.41;5014266;28;20037;-66
2021/12/31 08:01:22;;;;;;;5.83;1.40;;;;;;;19.39;57.88;101703.84;5013532;28;20032;-67
2021/12/31 08:03:47;;;;;;;6.50;1.37;;;;;;;19.41;57.92;101712.53;5013814;28;20037;-67
2021/12/31 08:06:12;;;;;;;5.17;1.30;;;;;;;19.40;58.39;101716.97;5014933;28;20109;-66
2021/12/31 08:08:46;;;;;;;7.57;1.60;;;;;;;19.47;58.36;101720.03;5015886;28;20290;-68
2021/12/31 08:11:12;;;;;;;8.35;1.73;;;;;;;19.56;58.07;101714.03;5017437;28;20075;-68
2021/12/31 08:13:39;;;;;;;8.35;1.60;;;;;;;19.67;58.03;101720.34;5017227;28;20072;-68
2021/12/31 08:16:05;;;;;;;6.15;1.52;;;;;;;19.75;57.65;101715.31;5015418;28;20079;-68
2021/12/31 08:18:30;;;;;;;8.27;1.67;;;;;;;19.83;57.56;101725.38;5018741;28;20101;-68
2021/12/31 08:20:55;;;;;;;6.97;1.80;;;;;;;19.89;57.17;101723.09;5015775;28;20041;-67
2021/12/31 08:23:20;;;;;;;7.43;1.90;;;;;;;19.90;56.66;101726.59;5013076;28;20046;-67
2021/12/31 08:25:49;;;;;;;6.23;1.23;;;;;;;19.84;54.45;101712.03;5013243;28;20125;-69
2021/12/31 08:28:14;;;;;;;5.75;1.50;;;;;;;19.77;56.01;101700.22;5013445;28;20767;-67
2021/12/31 08:30:39;;;;;;;5.90;1.65;;;;;;;19.72;56.69;101686.47;5012838;28;20085;-69
2021/12/31 08:33:08;;;;;;;6.28;1.33;;;;;;;19.68;57.11;101682.38;5013651;28;20352;-68
2021/12/31 08:35:33;;;;;;;6.22;1.58;;;;;;;19.67;57.26;101691.25;5012631;28;20025;-66
2021/12/31 08:37:58;;;;;;;7.25;1.58;;;;;;;19.65;57.58;101693.19;5013504;28;20525;-66
2021/12/31 08:40:24;;;;;;;5.90;1.38;;;;;;;19.62;57.25;101701.34;5013528;28;20109;-68
2021/12/31 08:42:53;;;;;;;5.00;1.30;;;;;;;19.61;57.26;101699.66;5013145;28;20497;-68
2021/12/31 08:45:19;;;;;;;6.78;1.40;;;;;;;19.58;57.11;101688.34;5013912;28;20079;-68
2021/12/31 08:47:45;;;;;;;6.63;1.55;;;;;;;19.60;57.40;101692.66;5013155;28;20038;-67
2021/12/31 08:50:10;;;;;;;7.72;1.73;;;;;;;19.58;57.70;101682.19;5012666;28;20037;-67
2021/12/31 08:52:35;;;;;;;7.07;1.58;;;;;;;19.57;57.51;101689.28;5012843;28;20048;-66
2021/12/31 08:55:01;;;;;;;11.73;2.00;;;;;;;19.56;56.72;101677.03;5017985;28;20033;-69
2021/12/31 08:57:26;;;;;;;6.72;1.48;;;;;;;19.54;57.45;101676.31;5013604;28;20063;-68
2021/12/31 08:59:51;;;;;;;5.93;1.65;;;;;;;19.53;57.49;101671.97;5013024;28;20026;-68
2021/12/31 09:02:17;;;;;;;9.50;1.83;;;;;;;19.53;57.74;101665.84;5013235;28;20021;-69
2021/12/31 09:04:42;;;;;;;5.80;1.80;;;;;;;19.52;57.83;101662.38;5012093;28;20356;-68
2021/12/31 09:07:08;;;;;;;6.13;1.53;;;;;;;19.45;57.69;101661.13;5013083;28;20469;-68
2021/12/31 09:09:33;;;;;;;6.60;1.52;;;;;;;19.50;57.49;101666.94;5012738;28;20052;-69
2021/12/31 09:12:00;;;;;;;5.47;1.40;;;;;;;19.52;57.74;101669.47;5012339;28;20152;-69
2021/12/31 09:14:26;;;;;;;7.35;1.63;;;;;;;19.51;57.91;101681.81;5013415;28;20041;-69
2021/12/31 09:16:51;;;;;;;5.82;1.60;;;;;;;19.58;58.06;101685.72;5013070;28;20026;-68
2021/12/31 09:19:17;;;;;;;9.43;1.70;;;;;;;19.67;57.89;101685.97;5012341;28;20044;-68
2021/12/31 09:21:42;;;;;;;9.15;2.28;;;;;;;19.74;57.42;101690.69;5012754;28;20022;-67
2021/12/31 09:24:08;;;;;;;8.25;2.10;;;;;;;19.74;57.40;101684.53;5012654;28;20509;-66
2021/12/31 09:26:34;;;;;;;6.80;1.60;;;;;;;19.72;57.05;101689.94;5012046;28;20034;-66
2021/12/31 09:29:02;;;;;;;9.27;1.70;;;;;;;19.71;57.19;101693.56;5013013;28;20030;-65
2021/12/31 09:31:28;;;;;;;6.78;1.70;;;;;;;19.68;57.12;101696.44;5012790;28;20056;-66
2021/12/31 09:33:53;;;;;;;6.90;1.48;;;;;;;19.66;57.33;101689.56;5011683;28;20046;-66
2021/12/31 09:36:18;;;;;;;5.88;1.48;;;;;;;19.65;57.36;101707.25;5012648;28;20029;-67
2021/12/31 09:38:43;;;;;;;6.75;1.40;;;;;;;19.63;57.38;101717.09;5012022;28;20386;-67
2021/12/31 09:41:09;;;;;;;6.90;1.60;;;;;;;19.61;57.45;101715.50;5012291;28;20022;-67
2021/12/31 09:43:37;;;;;;;17.15;2.10;;;;;;;19.63;57.58;101718.88;5012489;28;20326;-67
2021/12/31 09:46:05;;;;;;;14.88;1.90;;;;;;;19.61;57.50;101737.50;5012029;28;20045;-67
2021/12/31 09:48:30;;;;;;;13.20;1.42;;;;;;;19.61;57.54;101732.22;5012308;28;20100;-66
2021/12/31 09:50:57;;;;;;;7.43;1.57;;;;;;;19.61;57.73;101734.03;5012562;28;20026;-66
2021/12/31 09:53:24;;;;;;;11.63;1.80;;;;;;;19.61;57.51;101729.56;5011835;28;20283;-66
2021/12/31 09:55:52;;;;;;;11.10;1.50;;;;;;;19.61;57.77;101741.94;5012350;28;20033;-66
2021/12/31 09:58:20;;;;;;;11.23;1.70;;;;;;;19.60;57.65;101734.97;5012684;28;20064;-68
2021/12/31 10:00:48;;;;;;;9.02;1.67;;;;;;;19.60;57.83;101730.53;5013651;28;20378;-66
2021/12/31 10:03:22;;;;;;;5.88;1.42;;;;;;;19.62;58.37;101717.22;5016993;28;20042;-68
2021/12/31 10:05:50;;;;;;;7.82;1.63;;;;;;;19.62;58.14;101715.41;5016450;28;20044;-68
2021/12/31 10:08:28;;;;;;;6.80;1.30;;;;;;;19.64;57.92;101726.69;5015927;28;20033;-68
2021/12/31 10:11:10;;;;;;;5.00;1.40;;;;;;;19.62;57.46;101731.25;5016115;28;20052;-67
2021/12/31 10:13:37;;;;;;;3.88;1.40;;;;;;;19.61;57.78;101734.84;5015917;28;20101;-67
2021/12/31 10:16:04;;;;;;;4.57;1.33;;;;;;;19.60;57.80;101704.09;5015504;28;20050;-67
2021/12/31 10:18:30;;;;;;;5.72;1.33;;;;;;;19.61;58.00;101695.19;5015984;28;20026;-66
2021/12/31 10:20:59;;;;;;;4.65;1.80;;;;;;;19.63;58.13;101695.06;5015718;28;20034;-66
2021/12/31 10:23:24;;;;;;;7.00;1.40;;;;;;;19.61;57.30;101726.91;5016010;28;20487;-66
2021/12/31 10:25:50;;;;;;;7.28;1.77;;;;;;;19.62;57.81;101727.78;5015348;28;20138;-66
2021/12/31 10:28:16;;;;;;;4.32;1.30;;;;;;;19.61;58.01;101699.66;5014857;28;20180;-65
2021/12/31 10:30:43;;;;;;;6.47;1.55;;;;;;;19.63;58.23;101700.38;5015549;28;20062;-65
2021/12/31 10:33:08;;;;;;;6.13;1.60;;;;;;;19.65;58.32;101699.31;5019180;28;20496;-69
2021/12/31 10:35:45;;;;;;;7.13;1.35;;;;;;;19.74;57.99;101708.34;5015234;28;20065;-70
2021/12/31 10:38:13;;;;;;;7.20;1.40;;;;;;;19.85;57.98;101699.63;5015993;28;20180;-67
2021/12/31 10:41:00;;;;;;;6.95;1.35;;;;;;;19.94;57.79;101707.72;5015810;28;20054;-65
2021/12/31 10:43:29;;;;;;;5.78;1.40;;;;;;;20.04;57.64;101702.56;5021063;28;20038;-66
2021/12/31 10:45:56;;;;;;;4.60;1.20;;;;;;;20.11;57.48;101714.41;5022030;28;20493;-68
2021/12/31 10:48:38;;;;;;;5.35;1.25;;;;;;;20.21;57.13;101732.22;5016158;28;20117;-67
2021/12/31 10:51:03;;;;;;;4.00;1.35;;;;;;;20.26;56.96;101733.53;5014990;28;20049;-67
2021/12/31 10:53:34;;;;;;;4.78;1.65;;;;;;;20.28;56.83;101721.06;5015452;28;20013;-69
2021/12/31 10:56:11;;;;;;;8.35;1.60;;;;;;;20.32;57.04;101723.47;5015730;28;20022;-71
2021/12/31 10:58:39;;;;;;;5.40;1.45;;;;;;;20.33;57.11;101720.72;5015465;28;20117;-65
2021/12/31 11:01:07;;;;;;;5.53;1.40;;;;;;;20.35;57.06;101724.06;5015286;28;20026;-67
2021/12/31 11:03:34;;;;;;;9.20;2.25;;;;;;;20.34;57.19;101716.25;5014552;28;20080;-66
2021/12/31 11:06:00;;;;;;;5.00;1.25;;;;;;;20.35;56.88;101713.47;5015206;28;20429;-71
2021/12/31 11:08:27;;;;;;;6.65;1.60;;;;;;;20.31;56.78;101712.00;5015484;28;20026;-69
2021/12/31 11:10:54;;;;;;;7.20;1.55;;;;;;;20.29;56.41;101712.13;5013900;28;20022;-64
2021/12/31 11:13:22;;;;;;;5.60;1.40;;;;;;;20.25;56.69;101705.41;5015300;28;20030;-66
2021/12/31 11:15:50;;;;;;;6.82;1.35;;;;;;;20.22;56.83;101702.13;5014934;28;20038;-65
2021/12/31 11:18:23;;;;;;;4.47;1.30;;;;;;;20.19;56.85;101699.75;5014430;28;20476;-66
2021/12/31 11:20:50;;;;;;;5.33;1.50;;;;;;;20.19;57.00;101694.44;5014889;28;20470;-65
2021/12/31 11:23:16;;;;;;;5.20;1.70;;;;;;;20.17;57.08;101683.13;5015191;28;20345;-67
2021/12/31 11:26:04;;;;;;;5.45;1.92;;;;;;;20.19;57.11;101681.22;5013818;28;20042;-66
2021/12/31 11:28:33;;;;;;;4.50;1.60;;;;;;;20.21;57.30;101696.00;5014714;28;20034;-67